Etusivu
METAR-TAF:

METAR-TAF

Lentoasemat :

Houston, Texas, Yhdysvallat

Leveyspiiri: 29-48-18N, Pituuspiiri: 095-53-52W, korkeus merenpinnasta: 51 m

Tämänhetkinen sää

Tämä raportti tehtiin 18 minuuttia sitten, kello 17.15 UTC
Tuuli 14 kn etelästä/lounaasta
Lämpötila 33°C
Kosteus 67%
Ilmanpaine 1012 hPa
Näkyvyys: 16.1 km
Hajanaisia pilviä 2800 ft:n korkeudessa
Hajanaisia pilviä 3800 ft:n korkeudessa

METAR: KTME 201715Z AUTO 21014KT 10SM SCT028 SCT038 33/26 A2987 RMK AO2

Aika: 11:33 (17:33 UTC)


TAF: puuttuu

Säähavainnot ja -ennusteet yli 4000 lentoasemalta (METAR- ja TAF-raportit).

Käytössä olevat sääasemat on merkitty karttaan keltaisilla ja punaisilla pisteillä.

Aseta hiiri pisteen päälle nähdäksesi sääaseman nimen.

Klikkaa sitten nähdäksesi säähavainnot ja -ennusteet.

Kartan vaihtaminen: klikkaa mustalla rastilla varustettuja vihreitä pisteitä, niin voit zoomata sisään; viivalla varustettua vihreää pistettä, niin voit zoomata ulos tai vihreitä nuolia, niin pääset viereisille kartoille.


METAR-TAF: